createdAt,value
2023-01-19T00:01:32.686Z,80.87
2023-01-19T00:04:00.313Z,83.51
2023-01-19T00:06:27.963Z,85.04
2023-01-19T00:08:55.426Z,84.05
2023-01-19T00:11:22.738Z,84.80
2023-01-19T00:13:51.211Z,85.43
2023-01-19T00:16:20.151Z,85.76
2023-01-19T00:18:48.272Z,84.38
2023-01-19T00:21:15.926Z,85.70
2023-01-19T00:23:44.045Z,86.53
2023-01-19T00:26:11.970Z,86.55
2023-01-19T00:28:39.520Z,85.85
2023-01-19T00:31:06.909Z,86.23
2023-01-19T00:33:34.419Z,86.13
2023-01-19T00:36:02.015Z,86.08
2023-01-19T00:38:29.889Z,85.45
2023-01-19T00:40:57.306Z,84.66
2023-01-19T00:43:25.904Z,85.39
2023-01-19T00:45:53.618Z,85.83
2023-01-19T00:48:20.983Z,86.00
2023-01-19T00:50:49.446Z,86.03
2023-01-19T00:53:16.904Z,84.67
2023-01-19T00:55:44.417Z,85.34
2023-01-19T00:58:12.089Z,85.45
2023-01-19T01:00:39.745Z,84.86
2023-01-19T01:03:07.203Z,83.95
2023-01-19T01:05:34.954Z,82.66
2023-01-19T01:08:02.468Z,82.04
2023-01-19T01:10:30.108Z,81.90
2023-01-19T01:12:58.674Z,82.74
2023-01-19T01:15:27.784Z,83.01
2023-01-19T01:17:56.181Z,82.80
2023-01-19T01:20:28.207Z,84.25
2023-01-19T01:22:56.752Z,83.89
2023-01-19T01:25:25.637Z,85.36
2023-01-19T01:27:54.007Z,86.85
2023-01-19T01:30:22.006Z,88.89
2023-01-19T01:32:49.759Z,91.79
2023-01-19T01:35:17.477Z,90.58
2023-01-19T01:37:45.263Z,90.00
2023-01-19T01:40:14.860Z,91.20
2023-01-19T01:42:43.043Z,91.34
2023-01-19T01:45:38.420Z,91.02
2023-01-19T01:48:22.435Z,90.96
2023-01-19T01:51:25.282Z,90.09
2023-01-19T01:54:09.300Z,89.07
2023-01-19T01:56:39.896Z,88.80
2023-01-19T01:59:11.648Z,88.20
2023-01-19T02:01:58.358Z,87.67
2023-01-19T02:04:27.508Z,87.24
2023-01-19T02:07:13.572Z,86.96
2023-01-19T02:09:59.743Z,86.94
2023-01-19T02:12:45.873Z,86.55
2023-01-19T02:15:20.420Z,86.32
2023-01-19T02:17:48.295Z,85.56
2023-01-19T02:20:16.236Z,83.92
2023-01-19T02:22:49.597Z,84.32
2023-01-19T02:25:19.403Z,82.40
2023-01-19T02:27:47.501Z,82.21
2023-01-19T02:30:17.098Z,83.79
2023-01-19T02:32:44.716Z,84.10
2023-01-19T02:35:12.738Z,84.72
2023-01-19T02:37:40.621Z,84.05
2023-01-19T02:40:13.707Z,83.67
2023-01-19T02:42:44.575Z,83.52
2023-01-19T02:45:14.568Z,82.88
2023-01-19T02:47:46.061Z,82.02
2023-01-19T02:50:41.478Z,82.08
2023-01-19T02:53:30.187Z,82.37
2023-01-19T02:56:12.130Z,82.52
2023-01-19T02:59:04.231Z,81.76
2023-01-19T03:02:01.535Z,81.67
2023-01-19T03:04:39.337Z,81.43
2023-01-19T03:07:33.504Z,82.08
2023-01-19T03:10:09.043Z,82.46
2023-01-19T03:12:52.909Z,81.45
2023-01-19T03:15:32.218Z,81.37
2023-01-19T03:18:01.679Z,81.81
2023-01-19T03:20:29.427Z,81.67
2023-01-19T03:23:02.526Z,81.63
2023-01-19T03:25:32.071Z,81.56
2023-01-19T03:27:59.986Z,82.03
2023-01-19T03:30:40.451Z,81.56
2023-01-19T03:33:15.280Z,82.20
2023-01-19T03:35:47.263Z,83.37
2023-01-19T03:38:22.418Z,84.13
2023-01-19T03:40:50.413Z,82.66
2023-01-19T03:43:19.111Z,82.50
2023-01-19T03:45:46.910Z,81.55
2023-01-19T03:48:14.520Z,81.65
2023-01-19T03:50:42.117Z,81.31
2023-01-19T03:53:11.525Z,82.54
2023-01-19T03:55:41.663Z,82.47
2023-01-19T03:58:09.474Z,81.81
2023-01-19T04:00:37.291Z,81.57
2023-01-19T04:03:06.607Z,81.91
2023-01-19T04:05:34.216Z,82.06
2023-01-19T04:08:01.827Z,82.04
2023-01-19T04:10:29.373Z,81.54
2023-01-19T04:13:02.630Z,80.92
2023-01-19T04:15:30.792Z,81.10
2023-01-19T04:18:03.116Z,81.16
2023-01-19T04:20:30.793Z,81.75
2023-01-19T04:23:02.123Z,81.89
2023-01-19T04:25:29.891Z,81.70
2023-01-19T04:28:00.518Z,81.93
2023-01-19T04:30:28.142Z,82.14
2023-01-19T04:32:56.350Z,81.53
2023-01-19T04:35:24.013Z,81.53
2023-01-19T04:37:51.369Z,80.79
2023-01-19T04:40:21.965Z,80.65
2023-01-19T04:42:51.028Z,80.39
2023-01-19T04:45:18.658Z,80.34
2023-01-19T04:47:46.204Z,80.57
2023-01-19T04:50:13.733Z,81.18
2023-01-19T04:52:41.164Z,81.32
2023-01-19T04:55:09.050Z,80.79
2023-01-19T04:57:36.548Z,80.83
2023-01-19T05:00:06.841Z,81.24
2023-01-19T05:02:34.883Z,81.85
2023-01-19T05:05:02.890Z,81.54
2023-01-19T05:07:30.412Z,82.01
2023-01-19T05:09:57.861Z,82.67
2023-01-19T05:12:25.490Z,82.83
2023-01-19T05:14:52.961Z,83.15
2023-01-19T05:17:20.664Z,83.21
2023-01-19T05:19:48.955Z,83.17
2023-01-19T05:22:16.828Z,83.07
2023-01-19T05:24:44.298Z,82.93
2023-01-19T05:27:12.033Z,83.08
2023-01-19T05:29:39.520Z,82.80
2023-01-19T05:32:07.249Z,81.94
2023-01-19T05:34:35.062Z,81.96
2023-01-19T05:37:03.151Z,82.57
2023-01-19T05:39:30.870Z,83.08
2023-01-19T05:41:58.476Z,83.27
2023-01-19T05:44:25.981Z,83.27
2023-01-19T05:46:54.344Z,83.03
2023-01-19T05:49:21.663Z,82.86
2023-01-19T05:51:49.097Z,83.45
2023-01-19T05:54:16.503Z,82.73
2023-01-19T05:56:43.942Z,83.08
2023-01-19T05:59:11.371Z,82.65
2023-01-19T06:01:39.921Z,83.01
2023-01-19T06:04:07.798Z,82.56
2023-01-19T06:06:35.685Z,82.95
2023-01-19T06:09:03.060Z,83.12
2023-01-19T06:11:30.355Z,83.93
2023-01-19T06:13:57.712Z,84.08
2023-01-19T06:16:25.182Z,84.55
2023-01-19T06:18:53.636Z,84.33
2023-01-19T06:21:20.923Z,83.89
2023-01-19T06:23:48.495Z,84.28
2023-01-19T06:26:16.221Z,84.58
2023-01-19T06:28:43.564Z,83.95
2023-01-19T06:31:10.815Z,82.94
2023-01-19T06:33:38.200Z,83.23
2023-01-19T06:36:05.815Z,83.02
2023-01-19T06:38:33.156Z,83.65
2023-01-19T06:41:02.695Z,83.59
2023-01-19T06:43:31.315Z,82.97
2023-01-19T06:46:00.794Z,82.62
2023-01-19T06:48:28.440Z,82.39
2023-01-19T06:50:58.453Z,82.11
2023-01-19T06:53:28.162Z,82.53
2023-01-19T06:56:02.749Z,82.40
2023-01-19T06:58:32.339Z,82.36
2023-01-19T07:01:04.400Z,82.22
2023-01-19T07:03:32.543Z,82.92
2023-01-19T07:06:04.218Z,83.30
2023-01-19T07:08:31.599Z,83.36
2023-01-19T07:11:25.071Z,82.66
2023-01-19T07:13:51.640Z,82.20
2023-01-19T07:16:19.267Z,82.64
2023-01-19T07:18:48.885Z,82.42
2023-01-19T07:21:16.170Z,82.42
2023-01-19T07:23:43.614Z,82.25
2023-01-19T07:26:11.261Z,82.56
2023-01-19T07:28:38.711Z,84.72
2023-01-19T07:31:06.570Z,82.97
2023-01-19T07:33:34.034Z,81.16
2023-01-19T07:36:01.600Z,79.42
2023-01-19T07:38:28.923Z,80.45
2023-01-19T07:41:03.850Z,78.92
2023-01-19T07:43:32.290Z,78.84
2023-01-19T07:46:00.843Z,81.61
2023-01-19T07:48:28.457Z,79.34
2023-01-19T07:51:18.036Z,78.70
2023-01-19T07:53:45.837Z,79.50
2023-01-19T07:56:13.338Z,77.33
2023-01-19T07:58:41.352Z,78.02
2023-01-19T08:01:10.608Z,77.69
2023-01-19T08:03:38.446Z,78.18
2023-01-19T08:06:06.281Z,76.93
2023-01-19T08:08:34.303Z,77.49
2023-01-19T08:11:01.693Z,79.75
2023-01-19T08:13:29.002Z,78.18
2023-01-19T08:15:56.328Z,79.85
2023-01-19T08:18:23.846Z,80.79
2023-01-19T08:20:51.382Z,81.42
2023-01-19T08:23:19.768Z,82.08
2023-01-19T08:25:47.459Z,82.46
2023-01-19T08:28:16.271Z,82.63
2023-01-19T08:30:44.921Z,83.27
2023-01-19T08:33:13.095Z,83.62
2023-01-19T08:35:42.370Z,83.02
2023-01-19T08:38:10.435Z,83.76
2023-01-19T08:40:39.721Z,83.24
2023-01-19T08:43:09.585Z,83.31
2023-01-19T08:45:38.134Z,84.19
2023-01-19T08:48:06.395Z,83.76
2023-01-19T08:50:34.994Z,83.64
2023-01-19T08:53:04.559Z,82.96
2023-01-19T08:55:31.885Z,82.94
2023-01-19T08:58:00.385Z,83.33
2023-01-19T09:00:28.060Z,82.59
2023-01-19T09:02:56.584Z,82.34
2023-01-19T09:05:24.233Z,81.92
2023-01-19T09:07:51.795Z,82.56
2023-01-19T09:10:19.366Z,82.97
2023-01-19T09:12:46.946Z,81.58
2023-01-19T09:15:14.406Z,81.52
2023-01-19T09:17:42.420Z,82.42
2023-01-19T09:20:10.591Z,82.08
2023-01-19T09:22:39.692Z,82.03
2023-01-19T09:25:08.389Z,80.26
2023-01-19T09:27:36.073Z,80.47
2023-01-19T09:30:05.325Z,80.17
2023-01-19T09:32:32.824Z,79.86
2023-01-19T09:35:00.360Z,80.70
2023-01-19T09:37:27.630Z,81.25
2023-01-19T09:39:55.047Z,80.73
2023-01-19T09:42:42.901Z,80.94
2023-01-19T09:45:50.143Z,79.96
2023-01-19T09:48:27.104Z,79.54
2023-01-19T09:50:56.847Z,79.28
2023-01-19T09:53:40.485Z,79.25
2023-01-19T09:56:12.316Z,79.92
2023-01-19T09:58:40.640Z,80.40
2023-01-19T10:01:23.695Z,79.41
2023-01-19T10:04:00.149Z,78.92
2023-01-19T10:06:27.785Z,77.92
2023-01-19T10:09:06.388Z,78.76
2023-01-19T10:11:51.892Z,78.98
2023-01-19T10:14:30.878Z,78.65
2023-01-19T10:17:06.010Z,78.95
2023-01-19T10:19:37.984Z,79.09
2023-01-19T10:22:24.067Z,78.93
2023-01-19T10:25:00.852Z,78.81
2023-01-19T10:27:32.585Z,78.38
2023-01-19T10:30:01.314Z,78.17
2023-01-19T10:32:35.740Z,77.45
2023-01-19T10:35:21.857Z,77.92
2023-01-19T10:37:49.778Z,79.17
2023-01-19T10:40:47.814Z,78.28
2023-01-19T10:43:34.021Z,77.78
2023-01-19T10:46:05.991Z,78.00
2023-01-19T10:48:40.542Z,77.24
2023-01-19T10:51:09.222Z,77.47
2023-01-19T10:53:37.078Z,77.80
2023-01-19T10:56:22.690Z,77.69
2023-01-19T10:58:50.541Z,77.13
2023-01-19T11:01:19.259Z,77.92
2023-01-19T11:03:46.821Z,77.82
2023-01-19T11:06:14.883Z,78.45
2023-01-19T11:08:44.337Z,78.37
2023-01-19T11:11:12.567Z,78.26
2023-01-19T11:13:40.799Z,78.19
2023-01-19T11:16:12.627Z,76.95
2023-01-19T11:18:40.729Z,75.96
2023-01-19T11:21:10.940Z,76.82
2023-01-19T11:23:46.385Z,77.50
2023-01-19T11:26:24.320Z,76.58
2023-01-19T11:28:54.594Z,76.46
2023-01-19T11:31:31.464Z,76.27
2023-01-19T11:34:01.063Z,75.97
2023-01-19T11:36:31.204Z,78.94
2023-01-19T11:39:24.643Z,76.77
2023-01-19T11:41:56.225Z,74.79
2023-01-19T11:44:35.584Z,75.40
2023-01-19T11:47:12.352Z,74.80
2023-01-19T11:49:56.170Z,74.95
2023-01-19T11:52:38.805Z,75.74
2023-01-19T11:55:46.293Z,74.98
2023-01-19T11:58:15.657Z,74.53
2023-01-19T12:00:50.532Z,74.16
2023-01-19T12:03:24.428Z,73.98
2023-01-19T12:05:53.388Z,73.32
2023-01-19T12:08:30.065Z,74.02
2023-01-19T12:10:59.063Z,74.31
2023-01-19T12:13:27.873Z,74.54
2023-01-19T12:15:59.708Z,74.89
2023-01-19T12:18:34.001Z,74.95
2023-01-19T12:21:03.834Z,74.36
2023-01-19T12:23:53.373Z,74.56
2023-01-19T12:26:33.003Z,74.54
2023-01-19T12:29:22.999Z,74.16
2023-01-19T12:32:16.731Z,74.29
2023-01-19T12:34:52.023Z,74.42
2023-01-19T12:37:31.432Z,74.62
2023-01-19T12:40:21.263Z,74.45
2023-01-19T12:42:56.802Z,74.60
2023-01-19T12:45:25.973Z,75.28
2023-01-19T12:47:53.642Z,74.99
2023-01-19T12:50:24.155Z,74.70
2023-01-19T12:52:58.449Z,75.31
2023-01-19T12:55:31.576Z,75.34
2023-01-19T12:58:15.231Z,75.06
2023-01-19T13:00:44.369Z,72.74
2023-01-19T13:03:17.695Z,72.49
2023-01-19T13:05:45.044Z,73.55
2023-01-19T13:08:17.590Z,73.37
2023-01-19T13:11:00.712Z,74.11
2023-01-19T13:13:33.148Z,75.83
2023-01-19T13:16:27.659Z,75.12
2023-01-19T13:19:16.799Z,75.69
2023-01-19T13:21:48.468Z,76.57
2023-01-19T13:24:22.739Z,76.15
2023-01-19T13:26:50.132Z,76.78
2023-01-19T13:29:30.240Z,76.38
2023-01-19T13:32:05.125Z,77.44
2023-01-19T13:34:52.202Z,76.94
2023-01-19T13:37:24.317Z,76.77
2023-01-19T13:39:53.291Z,77.41
2023-01-19T13:42:38.128Z,77.16
2023-01-19T13:45:34.491Z,76.85
2023-01-19T13:48:05.181Z,77.17
2023-01-19T13:50:35.914Z,76.68
2023-01-19T13:53:04.996Z,75.78
2023-01-19T13:55:32.457Z,74.76
2023-01-19T13:57:59.857Z,75.25
2023-01-19T14:00:29.652Z,75.88
2023-01-19T14:03:21.572Z,76.70
2023-01-19T14:05:55.607Z,77.16
2023-01-19T14:08:23.514Z,77.65
2023-01-19T14:10:53.881Z,77.06
2023-01-19T14:13:33.199Z,76.84
2023-01-19T14:16:20.804Z,76.67
2023-01-19T14:18:59.431Z,77.60
2023-01-19T14:21:38.014Z,77.74
2023-01-19T14:24:09.409Z,78.27
2023-01-19T14:26:48.430Z,77.86
2023-01-19T14:29:17.322Z,78.25
2023-01-19T14:31:47.628Z,77.53
2023-01-19T14:34:34.288Z,76.75
2023-01-19T14:37:03.183Z,77.24
2023-01-19T14:39:35.314Z,78.44
2023-01-19T14:42:05.557Z,78.14
2023-01-19T14:44:36.667Z,78.18
2023-01-19T14:47:05.278Z,77.71
2023-01-19T14:49:35.965Z,77.93
2023-01-19T14:52:07.951Z,77.88
2023-01-19T14:54:38.502Z,78.23
2023-01-19T14:57:08.913Z,78.87
2023-01-19T14:59:36.476Z,78.25
2023-01-19T15:02:04.091Z,77.95
2023-01-19T15:04:31.733Z,78.29
2023-01-19T15:06:59.138Z,78.60
2023-01-19T15:09:27.005Z,79.01
2023-01-19T15:11:54.444Z,78.97
2023-01-19T15:14:22.219Z,78.72
2023-01-19T15:16:49.909Z,78.71
2023-01-19T15:19:18.031Z,78.64
2023-01-19T15:21:47.012Z,78.69
2023-01-19T15:24:16.346Z,79.14
2023-01-19T15:26:45.386Z,79.84
2023-01-19T15:29:20.897Z,79.60
2023-01-19T15:31:48.421Z,79.43
2023-01-19T15:34:16.072Z,79.31
2023-01-19T15:36:43.912Z,79.60
2023-01-19T15:39:11.702Z,78.74
2023-01-19T15:41:40.189Z,78.53
2023-01-19T15:44:10.800Z,78.47
2023-01-19T15:46:40.017Z,79.25
2023-01-19T15:49:07.715Z,78.30
2023-01-19T15:51:37.694Z,78.23
2023-01-19T15:54:08.971Z,78.31
2023-01-19T15:56:36.229Z,78.08
2023-01-19T15:59:04.273Z,78.18
2023-01-19T16:01:33.904Z,78.60
2023-01-19T16:04:03.462Z,79.63
2023-01-19T16:06:31.228Z,79.46
2023-01-19T16:09:01.855Z,79.27
2023-01-19T16:11:34.173Z,79.56
2023-01-19T16:14:01.769Z,79.92
2023-01-19T16:16:29.246Z,79.77
2023-01-19T16:18:57.773Z,79.65
2023-01-19T16:21:25.477Z,80.60
2023-01-19T16:23:53.295Z,80.88
2023-01-19T16:26:35.176Z,81.32
2023-01-19T16:29:08.630Z,80.87
2023-01-19T16:31:37.466Z,80.32
2023-01-19T16:34:04.965Z,81.28
2023-01-19T16:36:33.687Z,82.65
2023-01-19T16:39:02.931Z,81.97
2023-01-19T16:41:30.248Z,82.45
2023-01-19T16:43:58.228Z,82.32
2023-01-19T16:46:28.014Z,82.17
2023-01-19T16:48:59.961Z,81.85
2023-01-19T16:51:27.466Z,81.52
2023-01-19T16:53:54.906Z,81.25
2023-01-19T16:56:22.364Z,81.87
2023-01-19T16:58:56.746Z,81.98
2023-01-19T17:01:25.483Z,82.82
2023-01-19T17:03:53.300Z,83.00
2023-01-19T17:06:24.988Z,83.52
2023-01-19T17:08:52.934Z,82.75
2023-01-19T17:11:24.174Z,81.74
2023-01-19T17:13:57.077Z,81.62
2023-01-19T17:16:25.032Z,81.68
2023-01-19T17:18:53.092Z,83.20
2023-01-19T17:21:20.659Z,83.44
2023-01-19T17:23:50.199Z,83.12
2023-01-19T17:26:18.402Z,82.71
2023-01-19T17:28:46.637Z,82.85
2023-01-19T17:31:19.561Z,83.05
2023-01-19T17:33:49.228Z,83.38
2023-01-19T17:36:22.554Z,83.23
2023-01-19T17:38:50.473Z,83.14
2023-01-19T17:41:20.071Z,83.16
2023-01-19T17:43:47.819Z,83.53
2023-01-19T17:46:15.271Z,84.00
2023-01-19T17:48:42.539Z,84.51
2023-01-19T17:51:12.138Z,83.99
2023-01-19T17:53:41.130Z,83.81
2023-01-19T17:56:10.612Z,84.01
2023-01-19T17:58:38.526Z,84.55
2023-01-19T18:01:24.885Z,84.07
2023-01-19T18:03:52.990Z,83.88
2023-01-19T18:06:20.487Z,83.61
2023-01-19T18:08:48.932Z,83.42
2023-01-19T18:11:19.236Z,84.34
2023-01-19T18:13:48.378Z,84.84
2023-01-19T18:16:18.415Z,85.39
2023-01-19T18:18:45.761Z,85.43
2023-01-19T18:21:14.401Z,85.54
2023-01-19T18:23:45.872Z,84.59
2023-01-19T18:26:17.828Z,83.96
2023-01-19T18:28:45.911Z,84.84
2023-01-19T18:31:20.274Z,84.60
2023-01-19T18:34:03.204Z,84.95
2023-01-19T18:36:32.645Z,84.56
2023-01-19T18:39:01.716Z,84.36
2023-01-19T18:41:29.876Z,85.39
2023-01-19T18:43:58.886Z,85.22
2023-01-19T18:46:27.617Z,84.62
2023-01-19T18:48:56.832Z,83.27
2023-01-19T18:51:24.256Z,84.09
2023-01-19T18:53:51.844Z,84.79
2023-01-19T18:56:19.570Z,85.44
2023-01-19T18:58:46.899Z,84.59
2023-01-19T19:01:25.022Z,84.99
2023-01-19T19:03:53.336Z,85.67
2023-01-19T19:06:21.389Z,85.63
2023-01-19T19:08:50.310Z,85.52
2023-01-19T19:11:19.101Z,85.65
2023-01-19T19:13:46.590Z,85.12
2023-01-19T19:16:14.717Z,86.31
2023-01-19T19:18:42.496Z,86.96
2023-01-19T19:21:11.469Z,88.23
2023-01-19T19:23:38.880Z,87.97
2023-01-19T19:26:08.136Z,88.48
2023-01-19T19:28:36.751Z,88.28
2023-01-19T19:31:05.120Z,87.26
2023-01-19T19:33:32.900Z,87.51
2023-01-19T19:36:00.638Z,86.58
2023-01-19T19:38:28.275Z,87.67
2023-01-19T19:40:57.412Z,88.14
2023-01-19T19:43:25.102Z,88.80
2023-01-19T19:46:09.704Z,90.57
2023-01-19T19:48:39.202Z,88.04
2023-01-19T19:51:18.472Z,87.70
2023-01-19T19:53:47.891Z,89.70
2023-01-19T19:56:16.363Z,86.61
2023-01-19T19:58:43.669Z,85.82
2023-01-19T20:01:26.772Z,86.72
2023-01-19T20:03:54.884Z,88.94
2023-01-19T20:06:24.432Z,89.55
2023-01-19T20:08:53.610Z,90.03
2023-01-19T20:11:23.650Z,90.43
2023-01-19T20:13:50.990Z,90.95
2023-01-19T20:16:20.635Z,91.09
2023-01-19T20:18:53.892Z,91.95
2023-01-19T20:21:26.878Z,93.24
2023-01-19T20:23:55.549Z,93.22
2023-01-19T20:26:26.543Z,94.41
2023-01-19T20:28:55.137Z,95.53
2023-01-19T20:31:24.910Z,95.38
2023-01-19T20:33:53.185Z,95.82
2023-01-19T20:36:24.458Z,97.02
2023-01-19T20:38:53.500Z,95.46
2023-01-19T20:41:22.233Z,96.29
2023-01-19T20:43:50.047Z,96.00
2023-01-19T20:46:17.425Z,96.55
2023-01-19T20:48:46.533Z,96.76
2023-01-19T20:51:13.899Z,95.99
2023-01-19T20:53:41.635Z,94.93
2023-01-19T20:56:14.291Z,94.80
2023-01-19T20:58:41.898Z,96.99
2023-01-19T21:01:13.911Z,98.00
2023-01-19T21:03:42.026Z,98.50
2023-01-19T21:06:10.354Z,97.29
2023-01-19T21:08:37.984Z,95.96
2023-01-19T21:11:06.124Z,97.67
2023-01-19T21:13:34.115Z,97.66
2023-01-19T21:16:01.944Z,97.44
2023-01-19T21:18:29.234Z,97.40
2023-01-19T21:20:57.639Z,97.50
2023-01-19T21:23:28.567Z,98.29
2023-01-19T21:25:58.063Z,98.23
2023-01-19T21:28:26.823Z,99.50
2023-01-19T21:30:54.954Z,100.00
2023-01-19T21:33:22.547Z,100.00
2023-01-19T21:35:51.985Z,100.00
2023-01-19T21:38:20.214Z,98.67
2023-01-19T21:40:47.795Z,97.70
2023-01-19T21:43:15.125Z,96.00
2023-01-19T21:45:43.176Z,94.89
2023-01-19T21:48:10.797Z,94.41
2023-01-19T21:50:38.769Z,94.26
2023-01-19T21:53:09.245Z,97.08
2023-01-19T21:55:37.318Z,97.67
2023-01-19T21:58:05.044Z,98.07
2023-01-19T22:00:32.715Z,97.05
2023-01-19T22:03:04.198Z,96.16
2023-01-19T22:05:36.967Z,97.10
2023-01-19T22:08:06.340Z,97.89
2023-01-19T22:10:39.717Z,97.05
2023-01-19T22:13:07.885Z,95.81
2023-01-19T22:15:38.314Z,94.61
2023-01-19T22:18:06.955Z,96.71
2023-01-19T22:20:34.471Z,97.90
2023-01-19T22:23:01.785Z,94.95
2023-01-19T22:25:29.232Z,94.43
2023-01-19T22:27:57.621Z,94.00
2023-01-19T22:30:25.169Z,92.28
2023-01-19T22:32:53.176Z,90.07
2023-01-19T22:35:21.341Z,91.59
2023-01-19T22:37:48.972Z,91.43
2023-01-19T22:40:16.762Z,90.88
2023-01-19T22:42:48.248Z,89.62
2023-01-19T22:45:16.060Z,89.39
2023-01-19T22:47:43.403Z,90.36
2023-01-19T22:50:10.905Z,91.20
2023-01-19T22:52:38.267Z,91.00
2023-01-19T22:55:06.056Z,91.25
2023-01-19T22:57:36.693Z,91.17
2023-01-19T23:00:07.119Z,93.17
2023-01-19T23:02:34.790Z,93.76
2023-01-19T23:05:01.994Z,94.12
2023-01-19T23:07:29.397Z,94.92
2023-01-19T23:09:56.745Z,96.07
2023-01-19T23:12:24.132Z,95.98
2023-01-19T23:14:51.525Z,96.53
2023-01-19T23:17:18.954Z,98.20
2023-01-19T23:19:46.251Z,98.67
2023-01-19T23:22:13.716Z,97.71
2023-01-19T23:24:41.094Z,97.47
2023-01-19T23:27:08.424Z,96.89
2023-01-19T23:29:36.272Z,97.15
2023-01-19T23:32:03.750Z,97.83
2023-01-19T23:34:31.111Z,97.07
2023-01-19T23:36:58.512Z,96.25
2023-01-19T23:39:25.964Z,96.61
2023-01-19T23:41:53.257Z,96.04
2023-01-19T23:44:20.651Z,96.64
2023-01-19T23:46:48.036Z,97.32
2023-01-19T23:49:15.970Z,96.20
2023-01-19T23:51:43.399Z,96.09
2023-01-19T23:54:12.347Z,96.12
2023-01-19T23:56:39.744Z,95.31
2023-01-19T23:59:14.442Z,95.01
